АЭРОДРОМУУД

ICAO:
ZMCK
Нэр:
УЛААНБААТАР / Чингис Хаан
Ахц:
473849N 1064912E
081012 ZMUBYNYX
(A0164/22 NOTAMN
Q) ZMUB/QFATT/IV/BO /A /000/999/4738N10649E005
A) ZMCK B) 2205190000 C) 2206012359
E) TRIGGER NOTAM-PERM AIRAC AIP AMDT 04/22 WEF 19 MAY 2022 -CHANGES OF TWY AND APN STRENGTH)
- 1 month ago -
METAR
No records found.
TAF
TAF ZMCK 212240Z 2200/2306 29007MPS 9999 FEW030CB SCT033 TX24/2207Z TN06/2222Z BECMG 2201/2203 34008MPS BECMG 2211/2213 VRB02MPS BECMG 2303/2305 28007MPS=
- 2 hours ago -
TAF ZMCK 212240Z 2200/2306 29007MPS 9999 FEW030CB SCT033 TX24/2207Z TN06/2222Z BECMG 2201/2203 34008MPS BECMG 2211/2213 VRB02MPS BECMG 2303/2305 28007MPS=
- 2 hours ago -
TAF ZMCK 211950Z 2121/2206 VRB02MPS 9999 FEW030CB SCT033 BECMG 2122/2124 34008MPS=
- 4 hours ago -
TAF ZMCK 211950Z 2121/2206 VRB02MPS 9999 FEW030CB SCT033 BECMG 2122/2124 34008MPS=
- 4 hours ago -
TAF ZMCK 211630Z 2118/2224 VRB02MPS 9999 FEW030CB SCT033 TN12/2122Z TX24/2207Z PROB30 TEMPO 2118/2124 VRB08MPS TSRA SCT027CB SCT030 BECMG 2122/2124 34008MPS BECMG 2210/2212 VRB02MPS=
- 8 hours ago -
TAF ZMCK 211045Z 2112/2218 VRB02MPS 9999 FEW030CB SCT033 TN12/2122Z TX24/2207Z PROB30 TEMPO 2112/2122 VRB08MPS TSRA SCT027CB SCT030 BECMG 2122/2124 34007MPS BECMG 2210/2212 VRB02MPS=
- 14 hours ago -
TAF ZMCK 211045Z 2112/2218 VRB02MPS 9999 FEW030CB SCT033 TN12/2122Z TX24/2207Z PROB30 TEMPO 2112/2122 VRB08MPS TSRA SCT027CB SCT030 BECMG 2122/2124 34007MPS BECMG 2210/2212 VRB02MPS=
- 14 hours ago -
TAF ZMCK 210440Z 2106/2212 VRB02MPS 9999 FEW030CB SCT033 TX28/2107Z TN12/2122Z PROB30 TEMPO 2108/2120 VRB08MPS TSRA SCT027CB SCT030 BECMG 2122/2124 34007MPS BECMG 2208/2210 VRB02MPS=
- 20 hours ago -
TAF ZMCK 210440Z 2106/2212 VRB02MPS 9999 FEW030CB SCT033 TX28/2107Z TN12/2122Z PROB30 TEMPO 2108/2120 VRB08MPS TSRA SCT027CB SCT030 BECMG 2122/2124 34007MPS BECMG 2208/2210 VRB02MPS=
- 20 hours ago -
TAF ZMCK 202234Z 2100/2206 VRB02MPS 9999 FEW030CB SCT033 TX27/2107Z TN12/2122Z PROB40 TEMPO 2109/2116 VRB08MPS TSRA SCT027CB SCT030=
- 1 day ago -
TAF ZMCK 202234Z 2100/2206 VRB02MPS 9999 FEW030CB SCT033 TX27/2107Z TN12/2122Z PROB40 TEMPO 2109/2116 VRB08MPS TSRA SCT027CB SCT030=
- 1 day ago -
TAF ZMCK 201633Z 2018/2124 VRB02MPS 9999 FEW030CB SCT033 TN08/2022Z TX27/2107Z PROB40 TEMPO 2108/2114 VRB08MPS TSRA SCT027CB SCT030=
- 1 day ago -
TAF ZMCK 201633Z 2018/2124 VRB02MPS 9999 FEW030CB SCT033 TN08/2022Z TX27/2107Z PROB40 TEMPO 2108/2114 VRB08MPS TSRA SCT027CB SCT030=
- 1 day ago -